sensor_id;sensor_type;location;lat;lon;timestamp;P1;durP1;ratioP1;P2;durP2;ratioP2
9938;SDS011;5008;50.656;7.188;2023-04-24T04:01:35;3.63;;;3.33;;
9938;SDS011;5008;50.656;7.188;2023-04-24T04:04:02;3.73;;;3.43;;
9938;SDS011;5008;50.656;7.188;2023-04-24T04:06:29;3.97;;;3.57;;
9938;SDS011;5008;50.656;7.188;2023-04-24T04:08:56;3.70;;;3.40;;
9938;SDS011;5008;50.656;7.188;2023-04-24T04:11:24;4.47;;;3.70;;
9938;SDS011;5008;50.656;7.188;2023-04-24T04:13:51;3.83;;;3.53;;
9938;SDS011;5008;50.656;7.188;2023-04-24T04:16:18;4.23;;;3.83;;
9938;SDS011;5008;50.656;7.188;2023-04-24T04:18:46;3.80;;;3.50;;
9938;SDS011;5008;50.656;7.188;2023-04-24T04:21:13;5.10;;;3.30;;
9938;SDS011;5008;50.656;7.188;2023-04-24T04:23:40;4.20;;;3.43;;
9938;SDS011;5008;50.656;7.188;2023-04-24T04:26:07;4.20;;;3.60;;
9938;SDS011;5008;50.656;7.188;2023-04-24T04:28:36;4.20;;;3.63;;
9938;SDS011;5008;50.656;7.188;2023-04-24T04:31:03;4.60;;;3.80;;
9938;SDS011;5008;50.656;7.188;2023-04-24T04:33:29;3.60;;;3.30;;
9938;SDS011;5008;50.656;7.188;2023-04-24T04:35:57;4.23;;;3.83;;
9938;SDS011;5008;50.656;7.188;2023-04-24T04:38:25;4.27;;;3.87;;
9938;SDS011;5008;50.656;7.188;2023-04-24T04:40:55;4.37;;;3.70;;
9938;SDS011;5008;50.656;7.188;2023-04-24T04:43:22;5.23;;;4.07;;
9938;SDS011;5008;50.656;7.188;2023-04-24T04:45:49;3.70;;;3.40;;
9938;SDS011;5008;50.656;7.188;2023-04-24T04:48:17;4.30;;;3.90;;
9938;SDS011;5008;50.656;7.188;2023-04-24T04:50:43;4.07;;;3.67;;
9938;SDS011;5008;50.656;7.188;2023-04-24T04:53:12;4.27;;;3.47;;
9938;SDS011;5008;50.656;7.188;2023-04-24T04:55:38;3.53;;;3.23;;
9938;SDS011;5008;50.656;7.188;2023-04-24T04:58:05;3.77;;;3.47;;
9938;SDS011;5008;50.656;7.188;2023-04-24T05:00:32;3.40;;;3.10;;
9938;SDS011;5008;50.656;7.188;2023-04-24T05:03:01;3.60;;;3.30;;
9938;SDS011;5008;50.656;7.188;2023-04-24T05:05:28;3.33;;;3.03;;
9938;SDS011;5008;50.656;7.188;2023-04-24T05:07:55;3.80;;;3.40;;
9938;SDS011;5008;50.656;7.188;2023-04-24T05:10:23;2.80;;;2.60;;
9938;SDS011;5008;50.656;7.188;2023-04-24T05:12:50;3.27;;;2.97;;
9938;SDS011;5008;50.656;7.188;2023-04-24T05:15:17;3.80;;;3.50;;
9938;SDS011;5008;50.656;7.188;2023-04-24T05:17:44;3.00;;;2.70;;
9938;SDS011;5008;50.656;7.188;2023-04-24T05:20:11;3.30;;;3.00;;
9938;SDS011;5008;50.656;7.188;2023-04-24T05:22:38;3.47;;;3.17;;
9938;SDS011;5008;50.656;7.188;2023-04-24T05:25:05;5.07;;;3.60;;
9938;SDS011;5008;50.656;7.188;2023-04-24T05:27:34;4.17;;;3.77;;
9938;SDS011;5008;50.656;7.188;2023-04-24T05:30:00;5.33;;;3.90;;
9938;SDS011;5008;50.656;7.188;2023-04-24T05:32:27;3.80;;;3.50;;
9938;SDS011;5008;50.656;7.188;2023-04-24T05:34:54;3.30;;;3.00;;
9938;SDS011;5008;50.656;7.188;2023-04-24T05:37:28;3.87;;;3.13;;
9938;SDS011;5008;50.656;7.188;2023-04-24T05:39:55;2.73;;;2.53;;
9938;SDS011;5008;50.656;7.188;2023-04-24T05:42:22;4.00;;;3.13;;
9938;SDS011;5008;50.656;7.188;2023-04-24T05:44:50;2.60;;;2.40;;
9938;SDS011;5008;50.656;7.188;2023-04-24T05:47:19;4.27;;;3.87;;
9938;SDS011;5008;50.656;7.188;2023-04-24T05:49:46;4.47;;;4.07;;
9938;SDS011;5008;50.656;7.188;2023-04-24T05:52:13;3.80;;;3.50;;
9938;SDS011;5008;50.656;7.188;2023-04-24T05:54:40;4.20;;;3.73;;
9938;SDS011;5008;50.656;7.188;2023-04-24T05:57:07;4.43;;;4.03;;
9938;SDS011;5008;50.656;7.188;2023-04-24T05:59:35;3.83;;;3.53;;
9938;SDS011;5008;50.656;7.188;2023-04-24T06:02:04;4.23;;;3.83;;
9938;SDS011;5008;50.656;7.188;2023-04-24T06:04:31;4.57;;;3.37;;
9938;SDS011;5008;50.656;7.188;2023-04-24T06:06:58;5.23;;;3.87;;
9938;SDS011;5008;50.656;7.188;2023-04-24T06:09:25;4.37;;;3.90;;
9938;SDS011;5008;50.656;7.188;2023-04-24T06:11:52;3.70;;;3.17;;
9938;SDS011;5008;50.656;7.188;2023-04-24T06:14:19;4.67;;;3.80;;
9938;SDS011;5008;50.656;7.188;2023-04-24T06:16:46;4.53;;;3.50;;
9938;SDS011;5008;50.656;7.188;2023-04-24T06:19:15;4.50;;;4.10;;
9938;SDS011;5008;50.656;7.188;2023-04-24T06:21:41;7.43;;;4.37;;
9938;SDS011;5008;50.656;7.188;2023-04-24T06:24:08;5.90;;;3.70;;
9938;SDS011;5008;50.656;7.188;2023-04-24T06:26:35;4.53;;;4.13;;
9938;SDS011;5008;50.656;7.188;2023-04-24T06:29:02;4.93;;;4.50;;
9938;SDS011;5008;50.656;7.188;2023-04-24T06:31:29;4.67;;;4.27;;
9938;SDS011;5008;50.656;7.188;2023-04-24T06:34:00;4.23;;;3.83;;
9938;SDS011;5008;50.656;7.188;2023-04-24T06:36:28;6.57;;;4.60;;
9938;SDS011;5008;50.656;7.188;2023-04-24T06:38:55;4.10;;;3.73;;
9938;SDS011;5008;50.656;7.188;2023-04-24T06:41:22;5.07;;;4.20;;
9938;SDS011;5008;50.656;7.188;2023-04-24T06:43:50;4.30;;;4.00;;
9938;SDS011;5008;50.656;7.188;2023-04-24T06:46:16;4.67;;;4.27;;
9938;SDS011;5008;50.656;7.188;2023-04-24T06:48:43;4.10;;;3.80;;
9938;SDS011;5008;50.656;7.188;2023-04-24T06:51:10;4.40;;;4.07;;
9938;SDS011;5008;50.656;7.188;2023-04-24T06:53:38;4.87;;;4.33;;
9938;SDS011;5008;50.656;7.188;2023-04-24T06:56:05;4.50;;;4.10;;
9938;SDS011;5008;50.656;7.188;2023-04-24T06:58:32;4.70;;;3.93;;
9938;SDS011;5008;50.656;7.188;2023-04-24T07:00:59;4.73;;;4.00;;
9938;SDS011;5008;50.656;7.188;2023-04-24T07:03:26;3.67;;;3.40;;
9938;SDS011;5008;50.656;7.188;2023-04-24T07:05:52;4.70;;;4.30;;
9938;SDS011;5008;50.656;7.188;2023-04-24T07:08:21;4.27;;;3.87;;
9938;SDS011;5008;50.656;7.188;2023-04-24T07:10:49;4.57;;;4.07;;
9938;SDS011;5008;50.656;7.188;2023-04-24T07:13:17;4.40;;;4.00;;
9938;SDS011;5008;50.656;7.188;2023-04-24T07:15:44;4.03;;;3.60;;
9938;SDS011;5008;50.656;7.188;2023-04-24T07:18:10;4.30;;;3.93;;
9938;SDS011;5008;50.656;7.188;2023-04-24T07:20:39;4.27;;;3.87;;
9938;SDS011;5008;50.656;7.188;2023-04-24T07:23:06;4.33;;;3.93;;
9938;SDS011;5008;50.656;7.188;2023-04-24T07:25:32;3.90;;;3.60;;
9938;SDS011;5008;50.656;7.188;2023-04-24T07:28:01;4.17;;;3.77;;
9938;SDS011;5008;50.656;7.188;2023-04-24T07:30:28;3.87;;;3.57;;
9938;SDS011;5008;50.656;7.188;2023-04-24T07:32:55;3.70;;;3.40;;
9938;SDS011;5008;50.656;7.188;2023-04-24T07:35:21;3.50;;;3.10;;
9938;SDS011;5008;50.656;7.188;2023-04-24T07:37:50;3.53;;;3.20;;
9938;SDS011;5008;50.656;7.188;2023-04-24T07:40:17;3.37;;;3.07;;
9938;SDS011;5008;50.656;7.188;2023-04-24T07:42:44;2.80;;;2.60;;
9938;SDS011;5008;50.656;7.188;2023-04-24T07:45:14;2.70;;;2.50;;
9938;SDS011;5008;50.656;7.188;2023-04-24T07:47:41;2.90;;;2.70;;
9938;SDS011;5008;50.656;7.188;2023-04-24T07:50:10;2.30;;;2.10;;
9938;SDS011;5008;50.656;7.188;2023-04-24T07:52:37;2.33;;;2.13;;
9938;SDS011;5008;50.656;7.188;2023-04-24T07:55:05;2.23;;;2.03;;
9938;SDS011;5008;50.656;7.188;2023-04-24T07:57:32;1.90;;;1.80;;
9938;SDS011;5008;50.656;7.188;2023-04-24T07:59:58;2.13;;;1.70;;
9938;SDS011;5008;50.656;7.188;2023-04-24T08:02:27;1.80;;;1.70;;
9938;SDS011;5008;50.656;7.188;2023-04-24T08:04:54;1.90;;;1.80;;
9938;SDS011;5008;50.656;7.188;2023-04-24T08:07:21;2.17;;;1.97;;
9938;SDS011;5008;50.656;7.188;2023-04-24T08:09:48;2.43;;;2.20;;
9938;SDS011;5008;50.656;7.188;2023-04-24T08:12:14;2.00;;;1.90;;
9938;SDS011;5008;50.656;7.188;2023-04-24T08:14:41;2.13;;;2.03;;
9938;SDS011;5008;50.656;7.188;2023-04-24T08:17:08;2.10;;;2.00;;
9938;SDS011;5008;50.656;7.188;2023-04-24T08:19:36;1.57;;;1.47;;
9938;SDS011;5008;50.656;7.188;2023-04-24T08:22:03;2.80;;;2.10;;
9938;SDS011;5008;50.656;7.188;2023-04-24T08:24:30;1.73;;;1.63;;
9938;SDS011;5008;50.656;7.188;2023-04-24T08:26:56;1.83;;;1.73;;
9938;SDS011;5008;50.656;7.188;2023-04-24T08:29:24;1.70;;;1.53;;
9938;SDS011;5008;50.656;7.188;2023-04-24T08:31:51;1.30;;;1.30;;
9938;SDS011;5008;50.656;7.188;2023-04-24T08:34:20;1.60;;;1.50;;
9938;SDS011;5008;50.656;7.188;2023-04-24T08:36:48;1.40;;;1.30;;
9938;SDS011;5008;50.656;7.188;2023-04-24T08:39:15;1.50;;;1.40;;
9938;SDS011;5008;50.656;7.188;2023-04-24T08:41:44;1.67;;;1.27;;
9938;SDS011;5008;50.656;7.188;2023-04-24T08:44:12;2.23;;;1.30;;
9938;SDS011;5008;50.656;7.188;2023-04-24T08:46:41;2.07;;;1.50;;
9938;SDS011;5008;50.656;7.188;2023-04-24T08:49:12;1.17;;;1.07;;
9938;SDS011;5008;50.656;7.188;2023-04-24T08:51:41;1.00;;;1.00;;
9938;SDS011;5008;50.656;7.188;2023-04-24T08:54:09;1.20;;;1.10;;
9938;SDS011;5008;50.656;7.188;2023-04-24T08:56:37;1.07;;;1.07;;
9938;SDS011;5008;50.656;7.188;2023-04-24T08:59:06;1.50;;;1.40;;
9938;SDS011;5008;50.656;7.188;2023-04-24T09:01:34;1.97;;;1.30;;
9938;SDS011;5008;50.656;7.188;2023-04-24T09:04:04;1.30;;;1.13;;
9938;SDS011;5008;50.656;7.188;2023-04-24T09:06:34;1.70;;;1.60;;
9938;SDS011;5008;50.656;7.188;2023-04-24T09:09:02;1.30;;;1.20;;
9938;SDS011;5008;50.656;7.188;2023-04-24T09:11:30;1.30;;;1.20;;
9938;SDS011;5008;50.656;7.188;2023-04-24T09:13:58;1.67;;;1.50;;
9938;SDS011;5008;50.656;7.188;2023-04-24T09:16:26;1.60;;;1.50;;
9938;SDS011;5008;50.656;7.188;2023-04-24T09:18:54;1.80;;;1.70;;
9938;SDS011;5008;50.656;7.188;2023-04-24T09:21:22;1.47;;;1.37;;
9938;SDS011;5008;50.656;7.188;2023-04-24T09:23:57;1.53;;;1.43;;
9938;SDS011;5008;50.656;7.188;2023-04-24T09:26:25;1.70;;;1.60;;
9938;SDS011;5008;50.656;7.188;2023-04-24T09:28:53;2.17;;;1.97;;
9938;SDS011;5008;50.656;7.188;2023-04-24T09:31:20;1.70;;;1.60;;
9938;SDS011;5008;50.656;7.188;2023-04-24T09:33:53;2.10;;;1.90;;
9938;SDS011;5008;50.656;7.188;2023-04-24T09:36:25;1.80;;;1.57;;
9938;SDS011;5008;50.656;7.188;2023-04-24T09:38:55;2.57;;;2.13;;
9938;SDS011;5008;50.656;7.188;2023-04-24T09:41:24;1.87;;;1.77;;
9938;SDS011;5008;50.656;7.188;2023-04-24T09:43:54;2.37;;;1.83;;
9938;SDS011;5008;50.656;7.188;2023-04-24T09:46:29;1.73;;;1.63;;
9938;SDS011;5008;50.656;7.188;2023-04-24T09:48:56;1.70;;;1.60;;
9938;SDS011;5008;50.656;7.188;2023-04-24T09:51:33;1.67;;;1.57;;
9938;SDS011;5008;50.656;7.188;2023-04-24T09:54:01;1.60;;;1.50;;
9938;SDS011;5008;50.656;7.188;2023-04-24T09:56:29;2.17;;;1.70;;
9938;SDS011;5008;50.656;7.188;2023-04-24T09:59:05;1.70;;;1.47;;
9938;SDS011;5008;50.656;7.188;2023-04-24T10:01:32;1.50;;;1.40;;
9938;SDS011;5008;50.656;7.188;2023-04-24T10:03:59;1.57;;;1.47;;
9938;SDS011;5008;50.656;7.188;2023-04-24T10:06:29;1.50;;;1.33;;
9938;SDS011;5008;50.656;7.188;2023-04-24T10:08:59;1.90;;;1.40;;
9938;SDS011;5008;50.656;7.188;2023-04-24T10:11:26;1.53;;;1.43;;
9938;SDS011;5008;50.656;7.188;2023-04-24T10:13:53;1.70;;;1.60;;
9938;SDS011;5008;50.656;7.188;2023-04-24T10:16:22;2.17;;;1.97;;
9938;SDS011;5008;50.656;7.188;2023-04-24T10:18:52;2.83;;;2.03;;
9938;SDS011;5008;50.656;7.188;2023-04-24T10:21:19;3.57;;;2.40;;
9938;SDS011;5008;50.656;7.188;2023-04-24T10:23:46;2.43;;;2.23;;
9938;SDS011;5008;50.656;7.188;2023-04-24T10:26:15;2.30;;;2.10;;
9938;SDS011;5008;50.656;7.188;2023-04-24T10:28:44;3.23;;;2.30;;
9938;SDS011;5008;50.656;7.188;2023-04-24T10:31:12;2.30;;;2.10;;
9938;SDS011;5008;50.656;7.188;2023-04-24T10:33:41;2.97;;;2.50;;
9938;SDS011;5008;50.656;7.188;2023-04-24T10:36:09;2.93;;;2.50;;
9938;SDS011;5008;50.656;7.188;2023-04-24T10:38:37;2.67;;;2.30;;
9938;SDS011;5008;50.656;7.188;2023-04-24T10:41:06;3.43;;;2.73;;
9938;SDS011;5008;50.656;7.188;2023-04-24T10:43:34;3.67;;;2.50;;
9938;SDS011;5008;50.656;7.188;2023-04-24T10:46:01;2.97;;;2.40;;
9938;SDS011;5008;50.656;7.188;2023-04-24T10:48:29;3.70;;;2.30;;
9938;SDS011;5008;50.656;7.188;2023-04-24T10:50:58;3.67;;;2.50;;
9938;SDS011;5008;50.656;7.188;2023-04-24T10:53:27;5.63;;;2.30;;
9938;SDS011;5008;50.656;7.188;2023-04-24T10:55:57;3.00;;;2.67;;
9938;SDS011;5008;50.656;7.188;2023-04-24T10:58:35;2.50;;;2.30;;
9938;SDS011;5008;50.656;7.188;2023-04-24T11:01:03;3.80;;;3.00;;
9938;SDS011;5008;50.656;7.188;2023-04-24T11:03:31;4.73;;;2.73;;
9938;SDS011;5008;50.656;7.188;2023-04-24T11:06:01;3.87;;;3.00;;
9938;SDS011;5008;50.656;7.188;2023-04-24T11:08:30;3.97;;;2.87;;
9938;SDS011;5008;50.656;7.188;2023-04-24T11:10:59;5.27;;;3.23;;
9938;SDS011;5008;50.656;7.188;2023-04-24T11:13:29;5.37;;;3.37;;
9938;SDS011;5008;50.656;7.188;2023-04-24T11:16:31;4.57;;;3.20;;
9938;SDS011;5008;50.656;7.188;2023-04-24T11:19:00;3.60;;;3.30;;
9938;SDS011;5008;50.656;7.188;2023-04-24T11:21:32;5.20;;;3.30;;
9938;SDS011;5008;50.656;7.188;2023-04-24T11:24:22;3.77;;;3.40;;
9938;SDS011;5008;50.656;7.188;2023-04-24T11:26:51;4.73;;;3.57;;
9938;SDS011;5008;50.656;7.188;2023-04-24T11:29:19;4.43;;;3.40;;
9938;SDS011;5008;50.656;7.188;2023-04-24T11:31:47;4.60;;;3.40;;
9938;SDS011;5008;50.656;7.188;2023-04-24T11:34:16;4.80;;;3.30;;
9938;SDS011;5008;50.656;7.188;2023-04-24T11:36:45;3.57;;;3.07;;
9938;SDS011;5008;50.656;7.188;2023-04-24T11:39:13;3.90;;;3.50;;
9938;SDS011;5008;50.656;7.188;2023-04-24T11:41:40;3.80;;;3.50;;
9938;SDS011;5008;50.656;7.188;2023-04-24T11:44:08;4.20;;;3.20;;
9938;SDS011;5008;50.656;7.188;2023-04-24T11:46:36;5.40;;;3.17;;
9938;SDS011;5008;50.656;7.188;2023-04-24T11:49:05;4.17;;;3.30;;
9938;SDS011;5008;50.656;7.188;2023-04-24T11:51:32;3.93;;;3.00;;
9938;SDS011;5008;50.656;7.188;2023-04-24T11:54:01;4.73;;;3.20;;
9938;SDS011;5008;50.656;7.188;2023-04-24T11:56:29;3.67;;;2.80;;
9938;SDS011;5008;50.656;7.188;2023-04-24T11:58:55;5.40;;;3.17;;
9938;SDS011;5008;50.656;7.188;2023-04-24T12:01:22;3.00;;;2.67;;
9938;SDS011;5008;50.656;7.188;2023-04-24T12:03:49;3.80;;;2.80;;
9938;SDS011;5008;50.656;7.188;2023-04-24T12:06:17;4.10;;;3.10;;
9938;SDS011;5008;50.656;7.188;2023-04-24T12:08:48;3.97;;;3.03;;
9938;SDS011;5008;50.656;7.188;2023-04-24T12:11:16;3.93;;;3.13;;
9938;SDS011;5008;50.656;7.188;2023-04-24T12:13:46;4.30;;;3.10;;
9938;SDS011;5008;50.656;7.188;2023-04-24T12:16:13;5.43;;;4.00;;
9938;SDS011;5008;50.656;7.188;2023-04-24T12:18:43;4.83;;;3.60;;
9938;SDS011;5008;50.656;7.188;2023-04-24T12:21:17;4.30;;;3.43;;
9938;SDS011;5008;50.656;7.188;2023-04-24T12:23:44;4.50;;;3.60;;
9938;SDS011;5008;50.656;7.188;2023-04-24T12:26:12;4.73;;;3.70;;
9938;SDS011;5008;50.656;7.188;2023-04-24T12:28:45;3.60;;;3.23;;
9938;SDS011;5008;50.656;7.188;2023-04-24T12:31:14;4.50;;;3.60;;
9938;SDS011;5008;50.656;7.188;2023-04-24T12:33:41;4.23;;;3.83;;
9938;SDS011;5008;50.656;7.188;2023-04-24T12:36:09;6.13;;;4.13;;
9938;SDS011;5008;50.656;7.188;2023-04-24T12:38:37;4.17;;;3.80;;
9938;SDS011;5008;50.656;7.188;2023-04-24T12:41:06;4.87;;;3.93;;
9938;SDS011;5008;50.656;7.188;2023-04-24T12:43:34;5.43;;;3.90;;
9938;SDS011;5008;50.656;7.188;2023-04-24T12:46:03;5.47;;;3.87;;
9938;SDS011;5008;50.656;7.188;2023-04-24T12:48:30;4.30;;;3.90;;
9938;SDS011;5008;50.656;7.188;2023-04-24T12:50:57;4.80;;;3.97;;
9938;SDS011;5008;50.656;7.188;2023-04-24T12:53:26;5.00;;;3.77;;
9938;SDS011;5008;50.656;7.188;2023-04-24T12:55:56;4.67;;;4.13;;
9938;SDS011;5008;50.656;7.188;2023-04-24T12:58:23;5.87;;;4.73;;
9938;SDS011;5008;50.656;7.188;2023-04-24T13:00:50;5.87;;;4.13;;
9938;SDS011;5008;50.656;7.188;2023-04-24T13:03:18;6.97;;;4.27;;
9938;SDS011;5008;50.656;7.188;2023-04-24T13:05:47;4.97;;;3.83;;
9938;SDS011;5008;50.656;7.188;2023-04-24T13:08:14;5.03;;;4.20;;
9938;SDS011;5008;50.656;7.188;2023-04-24T13:10:41;4.47;;;4.07;;
9938;SDS011;5008;50.656;7.188;2023-04-24T13:13:08;5.37;;;3.90;;
9938;SDS011;5008;50.656;7.188;2023-04-24T13:15:35;5.37;;;3.93;;
9938;SDS011;5008;50.656;7.188;2023-04-24T13:18:02;4.57;;;3.97;;
9938;SDS011;5008;50.656;7.188;2023-04-24T13:20:30;6.23;;;4.00;;
9938;SDS011;5008;50.656;7.188;2023-04-24T13:22:57;4.40;;;3.23;;
9938;SDS011;5008;50.656;7.188;2023-04-24T13:25:25;3.50;;;3.20;;
9938;SDS011;5008;50.656;7.188;2023-04-24T13:27:52;3.67;;;3.10;;
9938;SDS011;5008;50.656;7.188;2023-04-24T13:30:19;3.93;;;3.60;;
9938;SDS011;5008;50.656;7.188;2023-04-24T13:32:46;3.77;;;3.20;;
9938;SDS011;5008;50.656;7.188;2023-04-24T13:35:13;3.60;;;3.10;;
9938;SDS011;5008;50.656;7.188;2023-04-24T13:37:41;3.40;;;3.10;;
9938;SDS011;5008;50.656;7.188;2023-04-24T13:40:08;3.53;;;3.10;;
9938;SDS011;5008;50.656;7.188;2023-04-24T13:42:36;3.15;;;2.78;;
9938;SDS011;5008;50.656;7.188;2023-04-24T13:45:03;4.47;;;3.10;;
9938;SDS011;5008;50.656;7.188;2023-04-24T13:47:30;6.60;;;3.10;;
9938;SDS011;5008;50.656;7.188;2023-04-24T13:49:57;4.13;;;3.72;;
9938;SDS011;5008;50.656;7.188;2023-04-24T13:52:24;4.28;;;3.50;;
9938;SDS011;5008;50.656;7.188;2023-04-24T13:54:52;3.47;;;3.03;;
9938;SDS011;5008;50.656;7.188;2023-04-24T13:57:19;3.80;;;3.35;;
9938;SDS011;5008;50.656;7.188;2023-04-24T13:59:46;4.18;;;3.30;;
9938;SDS011;5008;50.656;7.188;2023-04-24T14:02:13;3.20;;;2.90;;
9938;SDS011;5008;50.656;7.188;2023-04-24T14:04:40;3.67;;;3.17;;
9938;SDS011;5008;50.656;7.188;2023-04-24T14:07:09;5.72;;;3.40;;
9938;SDS011;5008;50.656;7.188;2023-04-24T14:09:36;3.78;;;3.35;;
9938;SDS011;5008;50.656;7.188;2023-04-24T14:12:04;3.70;;;3.20;;
9938;SDS011;5008;50.656;7.188;2023-04-24T14:14:31;4.30;;;3.30;;
9938;SDS011;5008;50.656;7.188;2023-04-24T14:16:58;3.42;;;3.13;;
9938;SDS011;5008;50.656;7.188;2023-04-24T14:19:25;4.50;;;3.28;;
9938;SDS011;5008;50.656;7.188;2023-04-24T14:21:52;4.55;;;3.45;;
9938;SDS011;5008;50.656;7.188;2023-04-24T14:24:20;3.10;;;2.83;;
9938;SDS011;5008;50.656;7.188;2023-04-24T14:26:47;3.50;;;3.20;;
9938;SDS011;5008;50.656;7.188;2023-04-24T14:29:15;4.20;;;3.33;;
9938;SDS011;5008;50.656;7.188;2023-04-24T14:31:42;3.72;;;3.15;;
9938;SDS011;5008;50.656;7.188;2023-04-24T14:34:09;5.05;;;3.13;;
9938;SDS011;5008;50.656;7.188;2023-04-24T14:36:36;2.92;;;2.72;;
9938;SDS011;5008;50.656;7.188;2023-04-24T14:39:03;4.32;;;3.35;;
9938;SDS011;5008;50.656;7.188;2023-04-24T14:41:31;4.07;;;3.05;;
9938;SDS011;5008;50.656;7.188;2023-04-24T14:44:00;3.92;;;3.53;;
9938;SDS011;5008;50.656;7.188;2023-04-24T14:46:29;5.63;;;3.42;;
9938;SDS011;5008;50.656;7.188;2023-04-24T14:48:56;5.22;;;3.58;;
9938;SDS011;5008;50.656;7.188;2023-04-24T14:51:23;4.60;;;3.50;;
9938;SDS011;5008;50.656;7.188;2023-04-24T14:53:50;4.38;;;3.70;;
9938;SDS011;5008;50.656;7.188;2023-04-24T14:56:17;5.97;;;3.97;;
9938;SDS011;5008;50.656;7.188;2023-04-24T14:58:43;4.60;;;4.20;;
9938;SDS011;5008;50.656;7.188;2023-04-24T15:01:10;5.93;;;4.53;;
9938;SDS011;5008;50.656;7.188;2023-04-24T15:03:39;5.00;;;3.70;;
9938;SDS011;5008;50.656;7.188;2023-04-24T15:06:06;6.30;;;4.03;;
9938;SDS011;5008;50.656;7.188;2023-04-24T15:08:33;4.88;;;3.92;;
9938;SDS011;5008;50.656;7.188;2023-04-24T15:11:00;5.77;;;4.40;;
9938;SDS011;5008;50.656;7.188;2023-04-24T15:13:27;4.18;;;3.58;;
9938;SDS011;5008;50.656;7.188;2023-04-24T15:15:54;4.93;;;3.67;;
9938;SDS011;5008;50.656;7.188;2023-04-24T15:18:20;4.82;;;3.33;;
9938;SDS011;5008;50.656;7.188;2023-04-24T15:20:49;5.93;;;4.00;;
9938;SDS011;5008;50.656;7.188;2023-04-24T15:23:15;4.97;;;3.73;;
9938;SDS011;5008;50.656;7.188;2023-04-24T15:25:42;3.70;;;3.40;;
9938;SDS011;5008;50.656;7.188;2023-04-24T15:28:09;3.73;;;3.33;;
9938;SDS011;5008;50.656;7.188;2023-04-24T15:30:36;5.10;;;3.87;;
9938;SDS011;5008;50.656;7.188;2023-04-24T15:33:03;4.13;;;3.63;;
9938;SDS011;5008;50.656;7.188;2023-04-24T15:35:30;4.53;;;3.63;;
9938;SDS011;5008;50.656;7.188;2023-04-24T15:37:58;3.92;;;3.25;;
9938;SDS011;5008;50.656;7.188;2023-04-24T15:40:28;3.83;;;3.15;;
9938;SDS011;5008;50.656;7.188;2023-04-24T15:42:55;3.85;;;3.40;;
9938;SDS011;5008;50.656;7.188;2023-04-24T15:45:22;4.47;;;3.20;;
9938;SDS011;5008;50.656;7.188;2023-04-24T15:47:49;4.20;;;3.38;;
9938;SDS011;5008;50.656;7.188;2023-04-24T15:50:16;4.10;;;3.65;;
9938;SDS011;5008;50.656;7.188;2023-04-24T15:52:43;3.60;;;3.30;;
9938;SDS011;5008;50.656;7.188;2023-04-24T15:55:12;3.58;;;3.20;;
9938;SDS011;5008;50.656;7.188;2023-04-24T15:57:39;4.57;;;3.60;;
9938;SDS011;5008;50.656;7.188;2023-04-24T16:00:06;3.50;;;3.10;;
9938;SDS011;5008;50.656;7.188;2023-04-24T16:02:34;3.72;;;3.35;;
9938;SDS011;5008;50.656;7.188;2023-04-24T16:05:01;5.47;;;3.03;;
9938;SDS011;5008;50.656;7.188;2023-04-24T16:07:29;3.35;;;2.97;;
9938;SDS011;5008;50.656;7.188;2023-04-24T16:09:56;3.53;;;3.22;;
9938;SDS011;5008;50.656;7.188;2023-04-24T16:12:27;7.50;;;3.80;;
9938;SDS011;5008;50.656;7.188;2023-04-24T16:14:54;3.57;;;3.27;;
9938;SDS011;5008;50.656;7.188;2023-04-24T16:17:21;4.87;;;3.30;;
9938;SDS011;5008;50.656;7.188;2023-04-24T16:19:48;4.00;;;3.40;;
9938;SDS011;5008;50.656;7.188;2023-04-24T16:22:15;6.33;;;3.47;;
9938;SDS011;5008;50.656;7.188;2023-04-24T16:24:42;5.73;;;3.70;;
9938;SDS011;5008;50.656;7.188;2023-04-24T16:27:11;5.57;;;3.70;;
9938;SDS011;5008;50.656;7.188;2023-04-24T16:29:41;6.07;;;3.87;;
9938;SDS011;5008;50.656;7.188;2023-04-24T16:32:11;4.63;;;3.60;;
9938;SDS011;5008;50.656;7.188;2023-04-24T16:34:38;6.50;;;3.70;;
9938;SDS011;5008;50.656;7.188;2023-04-24T16:37:05;4.13;;;3.70;;
9938;SDS011;5008;50.656;7.188;2023-04-24T16:39:37;4.27;;;3.60;;
9938;SDS011;5008;50.656;7.188;2023-04-24T16:42:09;4.77;;;3.73;;
9938;SDS011;5008;50.656;7.188;2023-04-24T16:44:37;4.90;;;4.40;;
9938;SDS011;5008;50.656;7.188;2023-04-24T16:47:05;4.83;;;3.80;;
9938;SDS011;5008;50.656;7.188;2023-04-24T16:49:33;4.23;;;3.80;;
9938;SDS011;5008;50.656;7.188;2023-04-24T16:52:00;5.53;;;3.70;;
9938;SDS011;5008;50.656;7.188;2023-04-24T16:54:27;4.17;;;3.33;;
9938;SDS011;5008;50.656;7.188;2023-04-24T16:57:00;4.20;;;3.80;;
9938;SDS011;5008;50.656;7.188;2023-04-24T16:59:28;4.57;;;3.47;;
9938;SDS011;5008;50.656;7.188;2023-04-24T17:01:57;5.07;;;3.60;;
9938;SDS011;5008;50.656;7.188;2023-04-24T17:04:26;5.17;;;3.97;;
9938;SDS011;5008;50.656;7.188;2023-04-24T17:06:53;4.13;;;3.73;;
9938;SDS011;5008;50.656;7.188;2023-04-24T17:09:21;4.80;;;3.70;;
9938;SDS011;5008;50.656;7.188;2023-04-24T17:11:48;5.90;;;3.80;;
9938;SDS011;5008;50.656;7.188;2023-04-24T17:14:18;4.53;;;3.50;;
9938;SDS011;5008;50.656;7.188;2023-04-24T17:16:47;6.83;;;3.70;;
9938;SDS011;5008;50.656;7.188;2023-04-24T17:19:15;4.63;;;3.50;;
9938;SDS011;5008;50.656;7.188;2023-04-24T17:21:44;4.00;;;3.60;;
9938;SDS011;5008;50.656;7.188;2023-04-24T17:24:11;4.00;;;3.43;;
9938;SDS011;5008;50.656;7.188;2023-04-24T17:26:39;4.93;;;3.70;;
9938;SDS011;5008;50.656;7.188;2023-04-24T17:29:07;4.40;;;3.70;;
9938;SDS011;5008;50.656;7.188;2023-04-24T17:31:35;4.00;;;3.60;;
9938;SDS011;5008;50.656;7.188;2023-04-24T17:34:02;4.23;;;3.50;;
9938;SDS011;5008;50.656;7.188;2023-04-24T17:36:29;3.60;;;3.10;;
9938;SDS011;5008;50.656;7.188;2023-04-24T17:38:57;4.10;;;3.00;;
9938;SDS011;5008;50.656;7.188;2023-04-24T17:41:29;4.20;;;3.80;;
9938;SDS011;5008;50.656;7.188;2023-04-24T17:43:57;5.20;;;3.30;;
9938;SDS011;5008;50.656;7.188;2023-04-24T17:46:24;5.73;;;3.17;;
9938;SDS011;5008;50.656;7.188;2023-04-24T17:48:58;3.73;;;3.23;;
9938;SDS011;5008;50.656;7.188;2023-04-24T17:51:31;4.37;;;3.60;;
9938;SDS011;5008;50.656;7.188;2023-04-24T17:54:02;3.87;;;3.57;;
9938;SDS011;5008;50.656;7.188;2023-04-24T17:56:29;6.23;;;3.87;;
9938;SDS011;5008;50.656;7.188;2023-04-24T17:58:56;4.20;;;3.80;;
9938;SDS011;5008;50.656;7.188;2023-04-24T18:01:23;5.27;;;3.60;;
9938;SDS011;5008;50.656;7.188;2023-04-24T18:03:52;4.53;;;4.13;;
9938;SDS011;5008;50.656;7.188;2023-04-24T18:06:19;3.93;;;3.63;;
9938;SDS011;5008;50.656;7.188;2023-04-24T18:08:47;5.33;;;4.70;;
9938;SDS011;5008;50.656;7.188;2023-04-24T18:11:17;4.20;;;3.77;;
9938;SDS011;5008;50.656;7.188;2023-04-24T18:13:45;4.40;;;3.97;;
9938;SDS011;5008;50.656;7.188;2023-04-24T18:16:17;5.57;;;4.10;;
9938;SDS011;5008;50.656;7.188;2023-04-24T18:18:44;4.27;;;3.67;;
9938;SDS011;5008;50.656;7.188;2023-04-24T18:21:16;5.60;;;4.27;;
9938;SDS011;5008;50.656;7.188;2023-04-24T18:23:45;5.97;;;4.10;;
9938;SDS011;5008;50.656;7.188;2023-04-24T18:26:12;4.50;;;3.93;;
9938;SDS011;5008;50.656;7.188;2023-04-24T18:28:42;5.83;;;4.20;;
9938;SDS011;5008;50.656;7.188;2023-04-24T18:31:09;5.17;;;3.90;;
9938;SDS011;5008;50.656;7.188;2023-04-24T18:33:39;4.47;;;3.97;;
9938;SDS011;5008;50.656;7.188;2023-04-24T18:36:11;5.53;;;3.97;;
9938;SDS011;5008;50.656;7.188;2023-04-24T18:38:40;5.03;;;3.97;;
9938;SDS011;5008;50.656;7.188;2023-04-24T18:41:08;6.67;;;4.53;;
9938;SDS011;5008;50.656;7.188;2023-04-24T18:43:35;5.03;;;4.37;;
9938;SDS011;5008;50.656;7.188;2023-04-24T18:46:05;4.93;;;4.23;;
9938;SDS011;5008;50.656;7.188;2023-04-24T18:48:40;5.37;;;4.30;;
9938;SDS011;5008;50.656;7.188;2023-04-24T18:51:18;5.03;;;4.50;;
9938;SDS011;5008;50.656;7.188;2023-04-24T18:53:45;4.33;;;3.93;;
9938;SDS011;5008;50.656;7.188;2023-04-24T18:56:12;5.60;;;4.27;;
9938;SDS011;5008;50.656;7.188;2023-04-24T18:58:40;7.03;;;4.30;;
9938;SDS011;5008;50.656;7.188;2023-04-24T19:01:11;4.50;;;3.70;;
9938;SDS011;5008;50.656;7.188;2023-04-24T19:03:38;6.80;;;4.40;;
9938;SDS011;5008;50.656;7.188;2023-04-24T19:06:05;4.43;;;4.03;;
9938;SDS011;5008;50.656;7.188;2023-04-24T19:08:33;7.83;;;4.47;;
9938;SDS011;5008;50.656;7.188;2023-04-24T19:11:02;5.30;;;4.60;;
9938;SDS011;5008;50.656;7.188;2023-04-24T19:13:30;7.83;;;5.10;;
9938;SDS011;5008;50.656;7.188;2023-04-24T19:15:57;7.37;;;5.00;;
9938;SDS011;5008;50.656;7.188;2023-04-24T19:18:25;5.53;;;5.00;;
9938;SDS011;5008;50.656;7.188;2023-04-24T19:20:53;5.80;;;5.10;;